Time;durP1;ratioP1;P1;durP2;ratioP2;P2;SDS_P1;SDS_P2;PMS_P1;PMS_P2;Temp;Humidity;BMP_temperature;BMP_pressure;BME280_temperature;BME280_humidity;BME280_pressure;Samples;Min_cycle;Max_cycle;Signal;HPM_P1;HPM_P2
2022/05/29 00:00:05;;;;;;;7.47;3.00;;;14.30;99.90;;;;;;5012224;28;20389;-63
2022/05/29 00:02:31;;;;;;;8.00;3.60;;;14.30;99.90;;;;;;5012863;28;20468;-64
2022/05/29 00:04:56;;;;;;;9.85;3.40;;;14.30;99.90;;;;;;5011677;28;20420;-64
2022/05/29 00:07:22;;;;;;;7.93;3.10;;;14.30;99.90;;;;;;5012696;28;20420;-62
2022/05/29 00:09:49;;;;;;;12.70;2.97;;;14.30;99.90;;;;;;5012564;28;20467;-56
2022/05/29 00:12:16;;;;;;;7.80;3.50;;;14.30;99.90;;;;;;5011935;28;20412;-63
2022/05/29 00:14:43;;;;;;;8.40;3.37;;;14.30;99.90;;;;;;5012316;28;20687;-63
2022/05/29 00:17:09;;;;;;;9.02;3.00;;;14.40;99.90;;;;;;5011684;28;20385;-63
2022/05/29 00:19:36;;;;;;;7.70;2.90;;;14.50;99.90;;;;;;5012311;28;20380;-63
2022/05/29 00:22:03;;;;;;;8.40;3.17;;;14.50;99.90;;;;;;5011370;28;20420;-63
2022/05/29 00:24:29;;;;;;;9.32;3.50;;;14.40;99.90;;;;;;5012376;28;20381;-62
2022/05/29 00:26:54;;;;;;;8.07;3.90;;;14.30;99.90;;;;;;5011331;28;20882;-63
2022/05/29 00:29:21;;;;;;;8.40;3.28;;;14.20;99.90;;;;;;5011424;28;20397;-62
2022/05/29 00:31:47;;;;;;;8.90;3.40;;;14.10;99.90;;;;;;5012209;28;20381;-63
2022/05/29 00:34:13;;;;;;;7.18;3.50;;;14.00;99.90;;;;;;5011401;28;20385;-63
2022/05/29 00:36:42;;;;;;;7.63;3.40;;;14.00;99.90;;;;;;5012099;28;20389;-63
2022/05/29 00:39:10;;;;;;;7.80;3.00;;;14.00;99.90;;;;;;5011442;28;20405;-63
2022/05/29 00:41:37;;;;;;;7.30;3.03;;;14.00;99.90;;;;;;5011863;28;20404;-63
2022/05/29 00:44:17;;;;;;;8.00;3.10;;;14.10;99.90;;;;;;5011359;28;20374;-63
2022/05/29 00:46:49;;;;;;;7.63;3.20;;;14.10;99.90;;;;;;5012090;28;20425;-63
2022/05/29 00:49:16;;;;;;;8.63;3.22;;;14.20;99.90;;;;;;5011623;28;20488;-63
2022/05/29 00:51:50;;;;;;;8.53;2.90;;;14.10;99.90;;;;;;5011355;28;20385;-63
2022/05/29 00:54:16;;;;;;;8.48;2.88;;;14.00;99.90;;;;;;5011982;28;20445;-63
2022/05/29 00:56:43;;;;;;;7.97;3.10;;;14.00;99.90;;;;;;5011542;28;20874;-58
2022/05/29 00:59:16;;;;;;;8.18;3.30;;;14.10;99.90;;;;;;5011137;28;20387;-63
2022/05/29 01:01:42;;;;;;;10.70;3.50;;;14.10;99.90;;;;;;5011302;28;20400;-63
2022/05/29 01:04:11;;;;;;;6.63;2.83;;;14.20;99.90;;;;;;5010396;28;21018;-60
2022/05/29 01:06:36;;;;;;;7.10;2.83;;;14.10;99.90;;;;;;5011208;28;20484;-60
2022/05/29 01:09:05;;;;;;;7.10;3.10;;;14.00;99.90;;;;;;5010703;28;20478;-62
2022/05/29 01:11:40;;;;;;;7.00;3.10;;;13.90;99.90;;;;;;5011058;28;20912;-63
2022/05/29 01:14:33;;;;;;;8.02;2.75;;;14.00;99.90;;;;;;5010634;28;20397;-61
2022/05/29 01:17:31;;;;;;;8.60;3.40;;;14.00;99.90;;;;;;5010294;28;20529;-63
2022/05/29 01:20:23;;;;;;;6.38;2.60;;;14.00;99.90;;;;;;4996826;28;20404;-63
2022/05/29 01:23:32;;;;;;;7.18;3.13;;;14.00;99.90;;;;;;4997504;28;20403;-56
2022/05/29 01:26:12;;;;;;;7.15;3.10;;;13.90;99.90;;;;;;4956017;28;20770;-63
2022/05/29 01:29:03;;;;;;;7.10;3.22;;;13.90;99.90;;;;;;5011373;28;20389;-63
2022/05/29 01:31:38;;;;;;;9.00;3.25;;;13.90;99.90;;;;;;5010931;28;20393;-63
2022/05/29 01:34:25;;;;;;;7.30;2.83;;;13.70;99.90;;;;;;4992722;28;20843;-63
2022/05/29 01:37:11;;;;;;;7.60;3.00;;;13.60;99.90;;;;;;5010612;28;20384;-56
2022/05/29 01:39:41;;;;;;;6.28;2.70;;;13.60;99.90;;;;;;5008525;28;20412;-63
2022/05/29 01:42:28;;;;;;;7.65;2.67;;;13.60;99.90;;;;;;5009842;28;20439;-63
2022/05/29 01:45:16;;;;;;;9.18;2.75;;;13.60;99.90;;;;;;5009961;28;20425;-61
2022/05/29 01:47:46;;;;;;;7.55;2.67;;;13.50;99.90;;;;;;5010501;28;20389;-61
2022/05/29 01:50:18;;;;;;;7.10;2.50;;;13.60;99.90;;;;;;5009900;28;20385;-62
2022/05/29 01:53:00;;;;;;;6.70;2.70;;;12.10;99.90;;;;;;5010619;28;20376;-62
2022/05/29 01:55:42;;;;;;;6.90;2.60;;;13.60;99.90;;;;;;5010589;28;20403;-63
2022/05/29 01:58:17;;;;;;;6.80;2.50;;;13.60;99.90;;;;;;5009927;28;20385;-63
2022/05/29 02:00:46;;;;;;;7.18;2.78;;;13.60;99.90;;;;;;4993553;28;20385;-60
2022/05/29 02:03:18;;;;;;;6.15;2.63;;;13.50;99.90;;;;;;5009748;28;20440;-62
2022/05/29 02:05:58;;;;;;;9.13;2.80;;;13.60;99.90;;;;;;5010423;28;20428;-63
2022/05/29 02:08:32;;;;;;;8.73;2.85;;;13.60;99.90;;;;;;5010295;28;20453;-61
2022/05/29 02:11:14;;;;;;;8.10;2.67;;;13.60;99.90;;;;;;5009279;28;20984;-62
2022/05/29 02:13:55;;;;;;;6.80;2.75;;;13.60;99.90;;;;;;5010200;28;20388;-62
2022/05/29 02:16:30;;;;;;;7.32;2.80;;;13.60;99.90;;;;;;5010343;28;20389;-61
2022/05/29 02:19:09;;;;;;;7.97;3.17;;;13.40;99.90;;;;;;5009426;28;20388;-62
2022/05/29 02:21:45;;;;;;;7.90;3.00;;;13.20;99.90;;;;;;5010643;28;20385;-62
2022/05/29 02:24:15;;;;;;;6.97;2.88;;;13.10;99.90;;;;;;5009468;28;20861;-59
2022/05/29 02:26:51;;;;;;;6.50;2.90;;;13.10;99.90;;;;;;5010040;28;20486;-61
2022/05/29 02:29:17;;;;;;;8.68;3.03;;;13.00;99.90;;;;;;5009549;28;20661;-62
2022/05/29 02:31:58;;;;;;;6.55;3.00;;;12.90;99.90;;;;;;5010254;28;20444;-62
2022/05/29 02:34:39;;;;;;;9.10;3.03;;;13.00;99.90;;;;;;5009837;28;20447;-61
2022/05/29 02:37:24;;;;;;;8.10;2.90;;;13.00;99.90;;;;;;5009487;28;21145;-62
2022/05/29 02:40:01;;;;;;;7.70;3.08;;;12.90;99.90;;;;;;5009997;28;20933;-62
2022/05/29 02:42:57;;;;;;;7.70;2.75;;;12.80;99.90;;;;;;5009780;28;20385;-62
2022/05/29 02:45:39;;;;;;;6.70;2.72;;;12.70;99.90;;;;;;5009993;28;20408;-61
2022/05/29 02:48:14;;;;;;;7.70;3.00;;;12.80;99.90;;;;;;5009243;28;20408;-62
2022/05/29 02:50:53;;;;;;;6.20;2.97;;;12.80;99.90;;;;;;5009878;28;20377;-61
2022/05/29 02:53:19;;;;;;;7.95;3.25;;;12.90;99.90;;;;;;5012807;28;20408;-62
2022/05/29 02:55:45;;;;;;;6.45;2.75;;;12.90;99.90;;;;;;5016069;28;20385;-62
2022/05/29 02:58:19;;;;;;;7.50;2.78;;;13.00;99.90;;;;;;5015613;28;20385;-63
2022/05/29 03:01:16;;;;;;;9.05;3.10;;;12.90;99.90;;;;;;5016401;28;20405;-62
2022/05/29 03:03:51;;;;;;;7.38;3.05;;;12.80;99.90;;;;;;5016274;28;20862;-61
2022/05/29 03:06:32;;;;;;;7.57;2.95;;;12.70;99.90;;;;;;5015563;28;20447;-62
2022/05/29 03:09:09;;;;;;;12.00;3.45;;;12.50;99.90;;;;;;5015580;28;20504;-61
2022/05/29 03:11:40;;;;;;;7.82;3.33;;;12.40;99.90;;;;;;5015911;28;20451;-62
2022/05/29 03:14:27;;;;;;;9.75;3.50;;;12.50;99.90;;;;;;5015251;28;20376;-62
2022/05/29 03:16:56;;;;;;;8.60;3.20;;;12.40;99.90;;;;;;5015292;28;20427;-56
2022/05/29 03:19:35;;;;;;;6.90;2.78;;;12.40;99.90;;;;;;5016052;28;20394;-58
2022/05/29 03:22:38;;;;;;;8.77;3.20;;;12.20;99.90;;;;;;5014193;28;20393;-62
2022/05/29 03:25:06;;;;;;;7.63;3.50;;;12.30;99.90;;;;;;4976123;28;20777;-61
2022/05/29 03:27:44;;;;;;;7.03;3.00;;;12.30;99.90;;;;;;4994344;28;20406;-62
2022/05/29 03:30:19;;;;;;;8.30;3.90;;;12.20;99.90;;;;;;4995799;28;20382;-62
2022/05/29 03:32:48;;;;;;;11.80;3.40;;;12.30;99.90;;;;;;4995806;28;20394;-61
2022/05/29 03:35:33;;;;;;;7.63;3.70;;;12.30;99.90;;;;;;4995550;28;21049;-61
2022/05/29 03:38:00;;;;;;;8.70;3.60;;;12.30;99.90;;;;;;4975816;28;20878;-61
2022/05/29 03:40:28;;;;;;;8.57;3.50;;;12.30;99.90;;;;;;4977896;28;20869;-61
2022/05/29 03:42:55;;;;;;;8.75;3.80;;;12.20;99.90;;;;;;4995541;28;20417;-55
2022/05/29 03:45:21;;;;;;;10.40;3.17;;;12.20;1.00;;;;;;4995745;28;20410;-60
2022/05/29 03:47:47;;;;;;;6.80;3.30;;;12.00;1.00;;;;;;4996024;28;20824;-61
2022/05/29 03:50:16;;;;;;;7.40;3.40;;;11.80;1.00;;;;;;4995550;28;21070;-62
2022/05/29 03:52:43;;;;;;;9.82;3.78;;;11.60;57.10;;;;;;4995713;28;20961;-61
2022/05/29 03:55:09;;;;;;;9.50;3.55;;;11.50;99.90;;;;;;4995410;28;20876;-61
2022/05/29 03:57:35;;;;;;;9.65;3.85;;;11.50;99.90;;;;;;4995719;28;20409;-61
2022/05/29 04:00:03;;;;;;;8.77;3.80;;;11.40;99.90;;;;;;4995323;28;20403;-61
2022/05/29 04:02:28;;;;;;;8.38;3.90;;;11.30;1.00;;;;;;4977875;28;20486;-61
2022/05/29 04:04:54;;;;;;;9.97;3.70;;;11.30;1.00;;;;;;4993994;28;20815;-56
2022/05/29 04:12:03;;;;;;;7.80;3.37;;;11.40;1.00;;;;;;4992084;28;20399;-61
2022/05/29 04:12:51;;;;;;;8.82;3.63;;;11.60;72.70;;;;;;4973077;28;20398;-61
2022/05/29 04:15:16;;;;;;;7.50;3.45;;;11.70;1.00;;;;;;4972731;28;20988;-61
2022/05/29 04:17:42;;;;;;;9.25;3.50;;;11.80;99.90;;;;;;4992659;28;20402;-62
2022/05/29 04:20:08;;;;;;;6.60;3.30;;;12.10;1.00;;;;;;4991641;28;20386;-59
2022/05/29 04:22:34;;;;;;;7.72;3.15;;;12.10;1.00;;;;;;4992047;28;20489;-62
2022/05/29 04:24:59;;;;;;;6.57;2.60;;;11.90;1.00;;;;;;4991601;28;20470;-63
2022/05/29 04:27:25;;;;;;;10.93;3.30;;;11.80;1.00;;;;;;4991928;28;20888;-62
2022/05/29 04:29:51;;;;;;;7.50;2.50;;;11.80;1.00;;;;;;4992219;28;20864;-61
2022/05/29 04:35:00;;;;;;;7.93;2.78;;;11.80;1.00;;;;;;4991371;28;20457;-61
2022/05/29 04:37:28;;;;;;;7.65;2.85;;;12.00;1.00;;;;;;4991384;28;20410;-61
2022/05/29 04:39:53;;;;;;;6.50;2.13;;;12.10;99.90;;;;;;4991621;28;20398;-54
2022/05/29 04:42:19;;;;;;;7.47;2.50;;;12.10;99.90;;;;;;4991915;28;20402;-60
2022/05/29 04:44:45;;;;;;;8.13;2.45;;;12.20;99.90;;;;;;4991909;28;20390;-60
2022/05/29 04:47:11;;;;;;;7.88;2.30;;;12.20;99.90;;;;;;4991186;28;20422;-60
2022/05/29 04:49:38;;;;;;;7.20;2.70;;;12.10;99.90;;;;;;4992281;28;20401;-62
2022/05/29 04:52:06;;;;;;;6.82;2.50;;;11.90;99.90;;;;;;4991327;28;20405;-63
2022/05/29 04:54:33;;;;;;;7.30;2.70;;;11.80;99.90;;;;;;4992050;28;20477;-61
2022/05/29 04:56:59;;;;;;;7.20;2.47;;;11.90;99.90;;;;;;4991037;28;20456;-62
2022/05/29 04:59:25;;;;;;;10.90;3.10;;;12.00;99.90;;;;;;4992015;28;20796;-60
2022/05/29 05:01:50;;;;;;;7.47;3.00;;;12.10;99.90;;;;;;4991916;28;20391;-61
2022/05/29 05:04:16;;;;;;;7.13;2.42;;;12.20;99.90;;;;;;4991150;28;20391;-61
2022/05/29 05:06:41;;;;;;;6.93;2.13;;;12.20;99.90;;;;;;4991233;28;20768;-63
2022/05/29 05:09:07;;;;;;;7.40;2.50;;;12.30;99.90;;;;;;4991062;28;20456;-61
2022/05/29 05:11:33;;;;;;;7.68;2.42;;;12.50;99.90;;;;;;4990828;28;20497;-62
2022/05/29 05:13:58;;;;;;;10.97;2.70;;;12.60;99.90;;;;;;4990967;28;20446;-62
2022/05/29 05:16:24;;;;;;;9.55;2.60;;;12.70;99.90;;;;;;5001133;28;20399;-61
2022/05/29 05:18:50;;;;;;;8.20;2.67;;;12.80;99.90;;;;;;5011318;28;20918;-63
2022/05/29 05:21:15;;;;;;;8.45;2.75;;;12.80;99.90;;;;;;5000934;28;20390;-61
2022/05/29 05:23:41;;;;;;;6.97;2.58;;;12.90;99.90;;;;;;4991254;28;20398;-59
2022/05/29 05:26:12;;;;;;;6.03;2.33;;;13.00;99.90;;;;;;4990924;28;20418;-62
2022/05/29 05:28:38;;;;;;;8.63;2.30;;;13.30;99.90;;;;;;4990766;28;20466;-60
2022/05/29 05:31:04;;;;;;;7.18;2.40;;;13.20;99.90;;;;;;4990317;28;20781;-61
2022/05/29 05:33:30;;;;;;;7.80;2.50;;;13.30;99.90;;;;;;4991445;28;20393;-64
2022/05/29 05:35:56;;;;;;;7.00;2.40;;;13.60;99.90;;;;;;4990042;28;20492;-57
2022/05/29 05:38:22;;;;;;;9.35;2.20;;;14.10;99.90;;;;;;4988283;28;20421;-62
2022/05/29 05:40:47;;;;;;;8.90;2.60;;;14.60;99.90;;;;;;4991001;28;20403;-63
2022/05/29 05:43:13;;;;;;;8.23;2.22;;;14.70;99.90;;;;;;4990437;28;20405;-64
2022/05/29 05:45:41;;;;;;;8.70;2.40;;;14.70;99.90;;;;;;4990673;28;20424;-64
2022/05/29 05:48:07;;;;;;;6.70;2.15;;;14.80;99.90;;;;;;4990476;28;20403;-63
2022/05/29 05:50:33;;;;;;;7.10;2.22;;;15.10;99.90;;;;;;4990571;28;20395;-63
2022/05/29 05:52:59;;;;;;;7.50;1.90;;;15.50;99.90;;;;;;4990505;28;20398;-57
2022/05/29 05:55:25;;;;;;;7.15;2.20;;;16.20;99.90;;;;;;4991014;28;20386;-61
2022/05/29 05:57:52;;;;;;;6.78;2.25;;;17.10;99.90;;;;;;4990315;28;20437;-61
2022/05/29 06:00:18;;;;;;;6.60;2.20;;;17.40;99.90;;;;;;4990114;28;20474;-58
2022/05/29 06:02:44;;;;;;;7.18;2.22;;;17.80;99.90;;;;;;4989676;28;20406;-60
2022/05/29 06:05:12;;;;;;;7.35;2.05;;;19.00;99.90;;;;;;4979948;28;20429;-61
2022/05/29 06:07:38;;;;;;;9.13;2.00;;;19.80;99.90;;;;;;4981516;28;20966;-61
2022/05/29 06:10:04;;;;;;;6.90;2.10;;;20.50;99.90;;;;;;4989008;28;20403;-61
2022/05/29 06:12:31;;;;;;;7.47;2.50;;;20.90;99.90;;;;;;4990146;28;20406;-64
2022/05/29 06:14:58;;;;;;;6.85;2.50;;;20.70;99.90;;;;;;4990213;28;20489;-55
2022/05/29 06:17:24;;;;;;;6.75;2.40;;;20.40;99.90;;;;;;4989796;28;20408;-62
2022/05/29 06:19:50;;;;;;;7.40;2.90;;;19.70;99.90;;;;;;4989927;28;20493;-61
2022/05/29 06:22:15;;;;;;;7.83;2.83;;;19.00;99.90;;;;;;4986555;28;20485;-61
2022/05/29 06:24:41;;;;;;;9.57;3.00;;;19.90;99.90;;;;;;4997697;28;20761;-62
2022/05/29 06:27:07;;;;;;;8.10;3.10;;;21.40;99.90;;;;;;4992806;28;20414;-62
2022/05/29 06:29:33;;;;;;;7.33;2.60;;;21.40;99.90;;;;;;4989779;28;20401;-57
2022/05/29 06:32:00;;;;;;;6.57;2.30;;;20.40;99.90;;;;;;4988243;28;20490;-55
2022/05/29 06:34:26;;;;;;;8.10;2.60;;;19.00;99.90;;;;;;4988756;28;20917;-61
2022/05/29 06:36:52;;;;;;;6.80;2.30;;;18.40;99.90;;;;;;4989900;28;20410;-63
2022/05/29 06:39:18;;;;;;;7.63;2.90;;;17.20;99.90;;;;;;4988107;28;21063;-64
2022/05/29 06:41:44;;;;;;;7.25;2.50;;;16.40;99.90;;;;;;4982497;28;20427;-64
2022/05/29 06:44:10;;;;;;;7.10;2.10;;;16.40;99.90;;;;;;4985965;28;20872;-64
2022/05/29 06:46:35;;;;;;;6.97;2.20;;;16.60;99.90;;;;;;4986259;28;20497;-60
2022/05/29 06:49:01;;;;;;;7.50;2.20;;;17.10;99.90;;;;;;4996888;28;20415;-62
2022/05/29 06:51:27;;;;;;;7.50;2.40;;;16.80;99.90;;;;;;4988136;28;20453;-62
2022/05/29 06:53:56;;;;;;;6.38;2.20;;;16.50;99.90;;;;;;4988777;28;20903;-62
2022/05/29 06:56:22;;;;;;;8.20;2.30;;;16.00;99.90;;;;;;4988071;28;20407;-61
2022/05/29 06:58:48;;;;;;;11.30;2.50;;;15.60;99.90;;;;;;4987238;28;20497;-65
2022/05/29 07:06:59;;;;;;;7.38;2.28;;;14.90;99.90;;;;;;4995061;28;20553;-62
2022/05/29 07:09:26;;;;;;;9.87;2.43;;;15.10;99.90;;;;;;4986502;28;20522;-62
2022/05/29 07:11:58;;;;;;;8.70;2.22;;;15.20;99.90;;;;;;4988034;28;20425;-60
2022/05/29 07:14:24;;;;;;;6.60;2.53;;;15.40;99.90;;;;;;4989538;28;20398;-60
2022/05/29 07:16:50;;;;;;;7.68;2.40;;;15.70;99.90;;;;;;4987432;28;20413;-61
2022/05/29 07:19:20;;;;;;;7.17;2.20;;;16.00;99.90;;;;;;4983517;28;20437;-64
2022/05/29 07:21:45;;;;;;;6.90;2.50;;;16.50;99.90;;;;;;4988491;28;20401;-63
2022/05/29 07:24:11;;;;;;;6.80;2.50;;;16.30;99.90;;;;;;4986690;28;20506;-63
2022/05/29 07:26:37;;;;;;;8.33;2.50;;;15.80;99.90;;;;;;4988187;28;20564;-62
2022/05/29 07:29:03;;;;;;;8.15;2.47;;;15.60;99.90;;;;;;4987470;28;20489;-62
2022/05/29 07:31:29;;;;;;;6.90;2.30;;;15.40;99.90;;;;;;4987054;28;20457;-62
2022/05/29 07:33:55;;;;;;;8.40;2.30;;;15.60;99.90;;;;;;4987842;28;20394;-62
2022/05/29 07:36:26;;;;;;;7.25;2.33;;;15.70;99.90;;;;;;4988538;28;20402;-62
2022/05/29 07:38:52;;;;;;;7.15;2.65;;;15.70;99.90;;;;;;4990053;28;20445;-61
2022/05/29 07:44:02;;;;;;;8.02;2.05;;;15.40;99.90;;;;;;4988756;28;20436;-61
2022/05/29 07:46:28;;;;;;;7.60;2.30;;;15.60;99.90;;;;;;4989801;28;20426;-62
2022/05/29 07:48:53;;;;;;;8.55;2.80;;;15.40;99.90;;;;;;4991018;28;20430;-60
2022/05/29 07:51:19;;;;;;;8.53;2.70;;;15.50;99.90;;;;;;4990336;28;20879;-63
2022/05/29 07:53:45;;;;;;;7.13;2.43;;;15.70;99.90;;;;;;4989258;28;20451;-61
2022/05/29 07:56:11;;;;;;;8.20;2.60;;;16.00;99.90;;;;;;4991291;28;20386;-61
2022/05/29 07:58:38;;;;;;;8.95;2.63;;;16.20;99.90;;;;;;4991876;28;20545;-62
2022/05/29 08:01:04;;;;;;;8.32;2.58;;;16.00;99.90;;;;;;4990365;28;20493;-61
2022/05/29 08:03:30;;;;;;;11.60;3.13;;;16.10;99.90;;;;;;4991443;28;20393;-62
2022/05/29 08:05:56;;;;;;;8.17;3.00;;;16.40;99.90;;;;;;4991601;28;20414;-61
2022/05/29 08:08:22;;;;;;;9.32;2.58;;;16.60;99.90;;;;;;4990307;28;20414;-64
2022/05/29 08:10:48;;;;;;;7.40;2.20;;;16.90;99.90;;;;;;4989868;28;20428;-63
2022/05/29 08:13:14;;;;;;;9.07;3.00;;;16.90;99.90;;;;;;4990898;28;20394;-63
2022/05/29 08:15:40;;;;;;;8.75;3.17;;;16.40;99.90;;;;;;4973016;28;20982;-62
2022/05/29 08:18:06;;;;;;;7.65;2.50;;;16.10;99.90;;;;;;4988267;28;20526;-62
2022/05/29 08:20:33;;;;;;;8.98;2.20;;;16.80;99.90;;;;;;4990786;28;20500;-62
2022/05/29 08:22:59;;;;;;;7.63;2.28;;;16.80;99.90;;;;;;4989563;28;20407;-60
2022/05/29 08:30:54;;;;;;;7.88;2.90;;;16.40;99.90;;;;;;4987289;28;20461;-62
2022/05/29 08:33:36;;;;;;;10.13;2.90;;;16.00;99.90;;;;;;4987270;28;20480;-62
2022/05/29 08:36:10;;;;;;;10.02;2.75;;;16.10;99.90;;;;;;4992593;28;20394;-61
2022/05/29 08:38:39;;;;;;;14.55;3.10;;;15.90;99.90;;;;;;4993137;28;20922;-62
2022/05/29 08:41:09;;;;;;;10.73;2.90;;;16.00;99.90;;;;;;4990104;28;20918;-62
2022/05/29 08:43:41;;;;;;;12.02;3.00;;;16.30;99.90;;;;;;4988489;28;20489;-61
2022/05/29 08:46:20;;;;;;;8.70;3.00;;;16.70;99.90;;;;;;4988834;28;20504;-62
2022/05/29 08:48:48;;;;;;;10.93;2.80;;;16.50;99.90;;;;;;4988465;28;20845;-62
2022/05/29 08:51:28;;;;;;;8.80;2.55;;;16.10;99.90;;;;;;4988459;28;20402;-62
2022/05/29 08:54:32;;;;;;;8.38;2.63;;;16.10;99.90;;;;;;4991392;28;20394;-62
2022/05/29 08:57:24;;;;;;;7.78;2.60;;;16.30;99.90;;;;;;4976543;28;20776;-60
2022/05/29 09:00:03;;;;;;;11.00;2.92;;;15.70;99.90;;;;;;4960666;28;20493;-62
2022/05/29 09:02:47;;;;;;;10.15;2.75;;;15.30;99.90;;;;;;4988483;28;20441;-62
2022/05/29 09:05:34;;;;;;;11.48;2.75;;;15.30;99.90;;;;;;4987827;28;20422;-61
2022/05/29 09:08:09;;;;;;;11.50;3.23;;;15.20;99.90;;;;;;4985284;28;20445;-60
2022/05/29 09:10:44;;;;;;;10.13;2.60;;;15.40;99.90;;;;;;4988363;28;20452;-61
2022/05/29 09:13:15;;;;;;;7.93;2.40;;;15.40;99.90;;;;;;4990254;28;20424;-61
2022/05/29 09:16:09;;;;;;;10.90;3.40;;;15.30;99.90;;;;;;4988090;28;20412;-62
2022/05/29 09:18:41;;;;;;;8.13;2.60;;;15.30;99.90;;;;;;4982894;28;20421;-61
2022/05/29 09:21:21;;;;;;;9.75;2.30;;;15.50;99.90;;;;;;4983207;28;20449;-61
2022/05/29 09:24:20;;;;;;;9.93;2.80;;;15.40;99.90;;;;;;4988842;28;21294;-62
2022/05/29 09:26:46;;;;;;;9.20;2.80;;;15.20;99.90;;;;;;4986595;28;20480;-61
2022/05/29 09:29:12;;;;;;;8.07;2.38;;;15.30;99.90;;;;;;4989185;28;20772;-63
2022/05/29 09:31:39;;;;;;;10.33;2.53;;;15.60;99.90;;;;;;4988597;28;20410;-64
2022/05/29 09:34:05;;;;;;;9.40;3.17;;;15.60;99.90;;;;;;4987122;28;20501;-62
2022/05/29 09:36:44;;;;;;;8.63;2.67;;;15.30;99.90;;;;;;4989420;28;20406;-63
2022/05/29 09:39:40;;;;;;;8.02;2.50;;;15.20;99.90;;;;;;4984910;28;21236;-63
2022/05/29 09:42:20;;;;;;;7.30;2.60;;;14.80;99.90;;;;;;4984499;28;20457;-63
2022/05/29 09:45:22;;;;;;;8.57;2.83;;;15.20;99.90;;;;;;4988672;28;20402;-63
2022/05/29 09:50:52;;;;;;;9.00;2.80;;;15.80;99.90;;;;;;4989497;28;20374;-62
2022/05/29 09:53:24;;;;;;;9.10;2.53;;;16.00;99.90;;;;;;4988278;28;20414;-64
2022/05/29 09:56:00;;;;;;;8.00;3.10;;;16.20;99.90;;;;;;4987008;28;20410;-64
2022/05/29 09:58:43;;;;;;;7.38;2.55;;;16.10;99.90;;;;;;4987721;28;20839;-65
2022/05/29 10:01:09;;;;;;;9.55;2.70;;;16.40;99.90;;;;;;4989458;28;20390;-63
2022/05/29 10:03:42;;;;;;;12.68;2.80;;;16.60;99.90;;;;;;4989489;28;20438;-67
2022/05/29 10:06:21;;;;;;;10.00;3.10;;;17.10;99.90;;;;;;4988628;28;20422;-64
2022/05/29 10:08:48;;;;;;;8.13;2.53;;;16.90;99.90;;;;;;4987618;28;20821;-63
2022/05/29 10:11:31;;;;;;;8.55;2.50;;;16.80;99.90;;;;;;4987163;28;20423;-65
2022/05/29 10:14:00;;;;;;;8.07;2.97;;;16.90;99.90;;;;;;4987603;28;20394;-64
2022/05/29 10:16:44;;;;;;;8.20;2.63;;;17.10;99.90;;;;;;4989162;28;20473;-65
2022/05/29 10:19:14;;;;;;;8.77;2.35;;;17.10;99.90;;;;;;4988458;28;21028;-64
2022/05/29 10:21:47;;;;;;;10.82;2.50;;;16.80;99.90;;;;;;4990045;28;20489;-64
2022/05/29 10:24:22;;;;;;;8.00;2.90;;;16.80;99.90;;;;;;4987318;28;20421;-64
2022/05/29 10:27:13;;;;;;;8.52;2.53;;;16.30;99.90;;;;;;4988978;28;20425;-63
2022/05/29 10:29:41;;;;;;;10.85;3.00;;;16.10;99.90;;;;;;4975897;28;20507;-64
2022/05/29 10:32:22;;;;;;;8.90;2.80;;;16.00;99.90;;;;;;4985944;28;20386;-64
2022/05/29 10:34:48;;;;;;;7.25;2.78;;;16.00;99.90;;;;;;4987343;28;20473;-63
2022/05/29 10:37:37;;;;;;;8.38;2.60;;;15.90;99.90;;;;;;4988455;28;20611;-64
2022/05/29 10:40:13;;;;;;;8.57;2.88;;;15.80;99.90;;;;;;4988819;28;20432;-60
2022/05/29 10:42:43;;;;;;;10.10;3.00;;;15.40;99.90;;;;;;4989157;28;20399;-63
2022/05/29 10:45:36;;;;;;;9.13;2.72;;;15.10;99.90;;;;;;4985590;28;20810;-63
2022/05/29 10:48:32;;;;;;;8.05;2.70;;;15.20;99.90;;;;;;4983259;28;20414;-61
2022/05/29 10:51:59;;;;;;;7.20;2.28;;;15.20;99.90;;;;;;4986256;28;20410;-62
2022/05/29 10:54:55;;;;;;;9.00;2.53;;;15.10;99.90;;;;;;4926181;29;21136;-60
2022/05/29 10:57:25;;;;;;;7.07;2.30;;;14.60;99.90;;;;;;4980360;28;20497;-61
2022/05/29 11:00:07;;;;;;;9.40;2.50;;;14.40;99.90;;;;;;4985875;28;20457;-63
2022/05/29 11:05:49;;;;;;;7.40;2.30;;;14.00;99.90;;;;;;4987892;28;20910;-60
2022/05/29 11:08:36;;;;;;;9.02;2.30;;;14.10;99.90;;;;;;4988920;28;20497;-62
2022/05/29 11:11:10;;;;;;;8.68;3.05;;;14.00;99.90;;;;;;4988364;28;20566;-58
2022/05/29 11:13:57;;;;;;;7.40;2.70;;;13.70;99.90;;;;;;4987517;28;20407;-61
2022/05/29 11:16:40;;;;;;;6.43;2.10;;;14.00;99.90;;;;;;4987188;28;20417;-61
2022/05/29 11:19:34;;;;;;;7.37;2.50;;;14.20;99.90;;;;;;4986196;28;20439;-62
2022/05/29 11:22:25;;;;;;;6.93;2.00;;;14.10;99.90;;;;;;4990857;28;20402;-61
2022/05/29 11:24:59;;;;;;;7.10;1.90;;;13.90;99.90;;;;;;4987799;28;20422;-61
2022/05/29 11:28:06;;;;;;;7.43;2.20;;;13.90;99.90;;;;;;4989481;28;20501;-61
2022/05/29 11:31:09;;;;;;;8.02;1.98;;;13.90;99.90;;;;;;4991968;28;20391;-59
2022/05/29 11:33:53;;;;;;;7.72;2.58;;;14.00;99.90;;;;;;4988655;28;20386;-63
2022/05/29 11:36:49;;;;;;;5.97;1.88;;;13.90;99.90;;;;;;4989716;28;20410;-63
2022/05/29 11:39:40;;;;;;;6.15;2.00;;;13.90;99.90;;;;;;4988759;28;20528;-62
2022/05/29 11:42:17;;;;;;;8.43;2.30;;;14.10;99.90;;;;;;4989549;28;20456;-62
2022/05/29 11:44:54;;;;;;;8.52;2.45;;;14.40;99.90;;;;;;4993765;28;20390;-63
2022/05/29 11:53:19;;;;;;;5.60;1.90;;;14.90;99.90;;;;;;4990673;28;20378;-63
2022/05/29 11:55:47;;;;;;;7.60;1.90;;;15.00;99.90;;;;;;4991117;28;20391;-62
2022/05/29 11:58:41;;;;;;;10.02;2.60;;;15.30;99.90;;;;;;4988410;28;20386;-62
2022/05/29 12:01:11;;;;;;;8.52;2.30;;;15.90;99.90;;;;;;4990042;28;20444;-62
2022/05/29 12:03:53;;;;;;;7.50;2.10;;;16.30;99.90;;;;;;4991188;28;20430;-62
2022/05/29 12:06:32;;;;;;;6.53;2.00;;;16.50;99.90;;;;;;4985283;28;20521;-62
2022/05/29 12:09:16;;;;;;;7.28;1.77;;;16.70;99.90;;;;;;4988485;28;20414;-63
2022/05/29 12:12:19;;;;;;;5.27;1.40;;;17.40;99.90;;;;;;4986535;28;20501;-63
2022/05/29 12:14:50;;;;;;;7.30;1.47;;;17.90;99.90;;;;;;4970695;28;20578;-63
2022/05/29 12:17:29;;;;;;;4.90;1.30;;;17.90;99.90;;;;;;4969617;28;20420;-64
2022/05/29 12:20:02;;;;;;;6.15;1.40;;;18.00;99.90;;;;;;4971999;28;20411;-63
2022/05/29 12:22:33;;;;;;;4.82;1.20;;;18.00;99.90;;;;;;4972244;28;20385;-64
2022/05/29 12:24:59;;;;;;;5.18;1.25;;;18.30;99.90;;;;;;4973419;28;20404;-62
2022/05/29 12:27:28;;;;;;;5.32;1.50;;;18.10;99.90;;;;;;4971735;28;21103;-61
2022/05/29 12:30:29;;;;;;;5.50;1.10;;;18.00;99.90;;;;;;4972058;28;20479;-63
2022/05/29 12:32:55;;;;;;;5.32;1.30;;;18.00;99.90;;;;;;4941310;28;20404;-62
2022/05/29 12:35:35;;;;;;;5.35;1.52;;;18.10;99.90;;;;;;4971125;28;20403;-62
2022/05/29 12:38:04;;;;;;;5.22;1.35;;;18.00;99.90;;;;;;4971825;28;20412;-60
2022/05/29 12:40:47;;;;;;;6.45;1.40;;;17.80;99.90;;;;;;4972025;28;20435;-62
2022/05/29 12:43:25;;;;;;;6.35;1.50;;;17.90;99.90;;;;;;4969021;28;20795;-63
2022/05/29 12:46:03;;;;;;;5.63;1.42;;;18.00;99.90;;;;;;4970642;28;20448;-64
2022/05/29 12:49:16;;;;;;;5.50;1.33;;;18.10;99.90;;;;;;4974283;28;20457;-69
2022/05/29 12:51:47;;;;;;;5.90;1.40;;;18.40;99.90;;;;;;4970916;28;20419;-67
2022/05/29 12:54:30;;;;;;;5.43;1.25;;;19.00;99.90;;;;;;4969450;28;20386;-63
2022/05/29 12:57:20;;;;;;;5.90;1.60;;;19.00;99.90;;;;;;4970841;28;20889;-63
2022/05/29 12:59:52;;;;;;;4.93;1.30;;;18.60;99.90;;;;;;4971374;28;20459;-66
2022/05/29 13:02:40;;;;;;;6.18;1.50;;;18.30;99.90;;;;;;4971322;28;20395;-66
2022/05/29 13:05:11;;;;;;;5.88;1.33;;;18.50;99.90;;;;;;4975187;28;20471;-60
2022/05/29 13:08:08;;;;;;;6.00;1.50;;;19.00;99.90;;;;;;4972137;28;20479;-65
2022/05/29 13:10:38;;;;;;;6.70;1.40;;;19.70;99.90;;;;;;4977712;28;20736;-64
2022/05/29 13:13:16;;;;;;;5.80;1.60;;;19.50;99.90;;;;;;4990375;28;20422;-60
2022/05/29 13:15:43;;;;;;;5.00;1.40;;;19.60;99.90;;;;;;4989825;28;20398;-66
2022/05/29 13:21:13;;;;;;;4.97;1.20;;;19.80;99.90;;;;;;4988396;28;20398;-64
2022/05/29 13:23:58;;;;;;;6.35;1.65;;;19.80;99.90;;;;;;4985267;28;20409;-65
2022/05/29 13:26:29;;;;;;;5.57;1.42;;;20.00;99.90;;;;;;4984601;28;20505;-64
2022/05/29 13:29:12;;;;;;;7.10;1.70;;;19.90;99.90;;;;;;4989682;28;20535;-64
2022/05/29 13:32:12;;;;;;;6.95;1.90;;;19.20;99.90;;;;;;4990383;28;20457;-65
2022/05/29 13:34:49;;;;;;;6.68;1.85;;;18.70;99.90;;;;;;4981164;28;20418;-58
2022/05/29 13:37:38;;;;;;;5.95;2.00;;;18.30;99.90;;;;;;4989952;28;20450;-59
2022/05/29 13:40:10;;;;;;;7.55;2.10;;;18.30;99.90;;;;;;4985990;28;20407;-54
2022/05/29 13:42:41;;;;;;;5.65;1.70;;;18.00;99.90;;;;;;4984427;28;20410;-60
2022/05/29 13:45:30;;;;;;;6.43;2.00;;;17.60;99.90;;;;;;4989694;28;20812;-59
2022/05/29 13:48:18;;;;;;;7.50;1.80;;;17.20;99.90;;;;;;4986758;28;20497;-60
2022/05/29 13:51:01;;;;;;;5.80;2.05;;;17.10;99.90;;;;;;4987080;28;20445;-59
2022/05/29 13:53:56;;;;;;;6.80;1.80;;;16.80;99.90;;;;;;4989225;28;20402;-61